createdAt,value
2017-09-08T03:30:28.093Z,58.50
2017-09-08T03:32:55.685Z,57.80
2017-09-08T03:35:23.746Z,58.00
2017-09-08T03:37:51.405Z,58.30
2017-09-08T03:40:19.089Z,58.60
2017-09-08T03:42:49.235Z,58.00
2017-09-08T03:45:16.882Z,58.00
2017-09-08T03:47:45.247Z,58.50
2017-09-08T03:50:13.642Z,58.80
2017-09-08T03:52:42.009Z,59.00
2017-09-08T03:55:10.761Z,59.00
2017-09-08T03:57:38.428Z,58.90
2017-09-08T04:00:06.049Z,58.90
2017-09-08T04:02:34.016Z,58.80
2017-09-08T04:05:01.605Z,58.70
2017-09-08T04:07:29.177Z,58.50
2017-09-08T04:09:56.834Z,58.10
2017-09-08T04:12:24.511Z,58.20
2017-09-08T04:14:52.643Z,58.40
2017-09-08T04:17:20.245Z,58.40
2017-09-08T04:19:47.852Z,58.50
2017-09-08T04:22:15.473Z,58.70
2017-09-08T04:24:43.068Z,58.80
2017-09-08T04:27:11.094Z,58.70
2017-09-08T04:29:38.697Z,58.80
2017-09-08T04:32:06.296Z,58.80
2017-09-08T04:34:34.043Z,58.60
2017-09-08T04:37:01.660Z,58.50
2017-09-08T04:39:30.386Z,58.90
2017-09-08T04:41:57.989Z,58.80
2017-09-08T04:44:25.585Z,58.80
2017-09-08T04:46:54.337Z,58.80
2017-09-08T04:49:21.942Z,58.80
2017-09-08T04:51:49.542Z,59.10
2017-09-08T04:54:17.503Z,59.40
2017-09-08T04:56:45.104Z,59.40
2017-09-08T04:59:12.706Z,59.40
2017-09-08T05:01:40.669Z,61.00
2017-09-08T05:04:08.256Z,59.80
2017-09-08T05:06:35.870Z,59.40
2017-09-08T05:09:04.313Z,58.60
2017-09-08T05:11:31.904Z,58.50
2017-09-08T05:14:00.619Z,58.90
2017-09-08T05:16:28.226Z,58.80
2017-09-08T05:18:55.849Z,59.00
2017-09-08T05:21:23.460Z,59.20
2017-09-08T05:23:51.061Z,58.80
2017-09-08T05:26:19.069Z,59.10
2017-09-08T05:28:46.717Z,58.30
2017-09-08T05:31:14.330Z,58.70
2017-09-08T05:33:43.153Z,59.60
2017-09-08T05:36:10.757Z,59.60
2017-09-08T05:38:39.117Z,58.70
2017-09-08T05:41:07.084Z,59.10
2017-09-08T05:43:34.681Z,58.90
2017-09-08T05:46:03.045Z,58.10
2017-09-08T05:48:30.657Z,58.00
2017-09-08T05:50:58.265Z,58.40
2017-09-08T05:53:26.315Z,58.40
2017-09-08T05:55:53.969Z,58.50
2017-09-08T05:58:21.578Z,58.90
2017-09-08T06:00:49.962Z,58.70
2017-09-08T06:03:18.322Z,58.50
2017-09-08T06:05:47.089Z,59.30
2017-09-08T06:08:14.691Z,58.60
2017-09-08T06:10:42.266Z,58.80
2017-09-08T06:13:09.896Z,58.60
2017-09-08T06:15:38.269Z,59.20
2017-09-08T06:18:07.038Z,59.70
2017-09-08T06:20:34.613Z,59.60
2017-09-08T06:23:02.204Z,59.70
2017-09-08T06:25:29.819Z,60.70
2017-09-08T06:27:57.418Z,60.60
2017-09-08T06:30:25.497Z,61.10
2017-09-08T06:32:53.099Z,60.50
2017-09-08T06:35:21.511Z,59.40
2017-09-08T06:37:50.280Z,59.00
2017-09-08T06:40:17.889Z,59.00
2017-09-08T06:42:45.496Z,58.90
2017-09-08T06:45:13.127Z,58.60
2017-09-08T06:47:40.721Z,58.60
2017-09-08T06:50:08.742Z,58.20
2017-09-08T06:52:36.369Z,58.10
2017-09-08T06:55:04.732Z,59.50
2017-09-08T06:57:32.701Z,58.90
2017-09-08T07:00:00.305Z,59.30
2017-09-08T07:02:27.957Z,58.90
2017-09-08T07:04:55.917Z,58.90
2017-09-08T07:07:24.284Z,58.10
2017-09-08T07:09:51.893Z,58.10
2017-09-08T07:12:19.537Z,57.50
2017-09-08T07:14:47.136Z,57.70
2017-09-08T07:17:15.121Z,58.70
2017-09-08T07:19:42.719Z,57.70
2017-09-08T07:22:10.317Z,57.50
2017-09-08T07:24:38.310Z,57.10
2017-09-08T07:27:05.913Z,57.50
2017-09-08T07:29:33.513Z,58.60
2017-09-08T07:32:01.192Z,57.80
2017-09-08T07:34:28.803Z,58.00
2017-09-08T07:36:56.864Z,57.60
2017-09-08T07:39:25.222Z,57.90
2017-09-08T07:41:53.650Z,57.00
2017-09-08T07:44:21.658Z,57.00
2017-09-08T07:46:49.297Z,57.50
2017-09-08T07:49:16.942Z,57.20
2017-09-08T07:51:44.574Z,56.70
2017-09-08T07:54:12.181Z,56.70
2017-09-08T07:56:40.276Z,57.20
2017-09-08T07:59:07.882Z,56.50
2017-09-08T08:01:35.486Z,56.70
2017-09-08T08:04:03.091Z,56.90
2017-09-08T08:06:30.809Z,56.30
2017-09-08T08:08:59.174Z,56.50
2017-09-08T08:11:26.794Z,56.50
2017-09-08T08:13:54.421Z,56.90
2017-09-08T08:16:22.020Z,56.20
2017-09-08T08:18:50.044Z,57.90
2017-09-08T08:21:17.651Z,57.60
2017-09-08T08:23:45.267Z,56.40
2017-09-08T08:26:12.880Z,57.00
2017-09-08T08:28:40.474Z,56.60
2017-09-08T08:31:08.358Z,57.60
2017-09-08T08:33:35.965Z,57.20
2017-09-08T08:36:03.562Z,57.50
2017-09-08T08:38:31.186Z,56.90
2017-09-08T08:40:58.786Z,57.00
2017-09-08T08:43:26.777Z,57.30
2017-09-08T08:45:54.389Z,57.50
2017-09-08T08:48:22.010Z,57.30
2017-09-08T08:50:50.387Z,56.10
2017-09-08T08:53:18.768Z,55.90
2017-09-08T08:55:47.417Z,53.90
2017-09-08T08:58:15.011Z,53.80
2017-09-08T09:00:43.373Z,53.50
2017-09-08T09:03:10.980Z,53.50
2017-09-08T09:05:38.581Z,51.60
2017-09-08T09:08:06.570Z,51.30
2017-09-08T09:10:34.175Z,52.40
2017-09-08T09:13:01.782Z,52.50
2017-09-08T09:15:29.426Z,52.40
2017-09-08T09:17:57.025Z,51.20
2017-09-08T09:20:25.517Z,50.60
2017-09-08T09:22:53.132Z,50.60
2017-09-08T09:25:20.738Z,50.30
2017-09-08T09:27:48.696Z,48.80
2017-09-08T09:30:17.057Z,47.80
2017-09-08T09:32:44.665Z,47.80
2017-09-08T09:35:12.684Z,47.90
2017-09-08T09:37:40.411Z,47.00
2017-09-08T09:40:08.019Z,47.60
2017-09-08T09:42:36.405Z,46.00
2017-09-08T09:45:04.774Z,44.70
2017-09-08T09:47:32.838Z,44.50
2017-09-08T09:50:00.430Z,44.40
2017-09-08T09:52:28.988Z,45.40
2017-09-08T09:54:56.603Z,46.00
2017-09-08T09:57:24.194Z,44.20
2017-09-08T09:59:52.262Z,43.90
2017-09-08T10:02:19.837Z,41.90
2017-09-08T10:04:48.214Z,42.70
2017-09-08T10:07:15.991Z,42.70
2017-09-08T10:09:44.484Z,40.40
2017-09-08T10:12:12.852Z,38.20
2017-09-08T10:14:41.238Z,38.90
2017-09-08T10:17:09.598Z,39.10
2017-09-08T10:19:37.650Z,39.10
2017-09-08T10:22:05.243Z,37.50
2017-09-08T10:24:33.616Z,37.30
2017-09-08T10:27:01.246Z,37.30
2017-09-08T10:29:28.837Z,37.70
2017-09-08T10:31:57.807Z,38.10
2017-09-08T10:34:25.410Z,37.40
2017-09-08T10:36:53.015Z,38.70
2017-09-08T10:39:21.390Z,39.50
2017-09-08T10:41:49.241Z,39.40
2017-09-08T10:44:17.212Z,39.40
2017-09-08T10:46:44.804Z,40.30
2017-09-08T10:49:12.413Z,40.40
2017-09-08T10:51:40.434Z,41.40
2017-09-08T10:54:08.040Z,42.20
2017-09-08T10:56:35.633Z,43.30
2017-09-08T10:59:03.517Z,42.90
2017-09-08T11:01:31.116Z,39.30
2017-09-08T11:03:59.846Z,35.30
2017-09-08T11:06:27.538Z,34.60
2017-09-08T11:08:55.928Z,35.90
2017-09-08T11:11:23.541Z,35.90
2017-09-08T11:13:51.291Z,34.50
2017-09-08T11:16:19.304Z,32.60
2017-09-08T11:18:46.911Z,29.10
2017-09-08T11:21:14.603Z,27.40
2017-09-08T11:23:42.390Z,26.10
2017-09-08T11:26:09.993Z,25.80
2017-09-08T11:28:37.959Z,27.10
2017-09-08T11:31:05.726Z,30.30
2017-09-08T11:33:39.476Z,33.60
2017-09-08T11:36:12.586Z,32.90
2017-09-08T11:38:40.272Z,28.00
2017-09-08T11:41:08.975Z,30.20
2017-09-08T11:43:36.571Z,30.20
2017-09-08T11:46:04.174Z,30.80
2017-09-08T11:48:32.563Z,34.60
2017-09-08T11:51:00.932Z,33.60
2017-09-08T11:53:29.706Z,33.50
2017-09-08T11:55:57.308Z,33.50
2017-09-08T11:58:24.908Z,33.60
2017-09-08T12:00:52.572Z,32.70
2017-09-08T12:03:20.171Z,34.20
2017-09-08T12:05:48.882Z,35.50
2017-09-08T12:08:16.544Z,35.40
2017-09-08T12:10:44.171Z,36.90
2017-09-08T12:13:12.571Z,38.50
2017-09-08T12:15:40.175Z,38.40
2017-09-08T12:18:08.180Z,38.30
2017-09-08T12:20:36.559Z,36.80
2017-09-08T12:23:04.958Z,36.20
2017-09-08T12:25:32.589Z,36.10
2017-09-08T12:28:00.190Z,34.80
2017-09-08T12:30:28.162Z,34.60
2017-09-08T12:32:55.757Z,35.30
2017-09-08T12:35:23.473Z,37.80
2017-09-08T12:37:51.086Z,38.60
2017-09-08T12:40:19.777Z,38.60
2017-09-08T12:42:47.900Z,38.50
2017-09-08T12:45:15.657Z,38.50
2017-09-08T12:47:43.278Z,37.80
2017-09-08T12:50:10.914Z,38.90
2017-09-08T12:52:38.661Z,38.80
2017-09-08T12:55:06.659Z,39.70
2017-09-08T12:57:34.280Z,39.10
2017-09-08T13:00:01.898Z,38.50
2017-09-08T13:02:30.447Z,39.00
2017-09-08T13:04:58.044Z,39.30
2017-09-08T13:07:25.973Z,38.20
2017-09-08T13:09:53.572Z,37.70
2017-09-08T13:12:21.165Z,37.90
2017-09-08T13:14:48.794Z,37.70
2017-09-08T13:17:16.388Z,37.40
2017-09-08T13:19:44.409Z,36.80
2017-09-08T13:22:12.011Z,36.50
2017-09-08T13:24:39.610Z,38.00
2017-09-08T13:27:07.263Z,37.20
2017-09-08T13:29:34.861Z,38.50
2017-09-08T13:32:02.800Z,37.90
2017-09-08T13:34:30.410Z,38.00
2017-09-08T13:36:58.806Z,39.30
2017-09-08T13:39:26.412Z,39.30
2017-09-08T13:41:54.868Z,40.30
2017-09-08T13:44:22.994Z,41.00
2017-09-08T13:46:51.384Z,37.90
2017-09-08T13:49:19.741Z,39.20
2017-09-08T13:51:47.366Z,39.20
2017-09-08T13:54:14.997Z,38.40
2017-09-08T13:56:42.949Z,36.90
2017-09-08T13:59:11.319Z,37.50
2017-09-08T14:01:39.757Z,37.50
2017-09-08T14:04:07.418Z,36.80
2017-09-08T14:06:35.004Z,37.90
2017-09-08T14:09:02.963Z,38.10
2017-09-08T14:11:30.609Z,38.40
2017-09-08T14:13:58.269Z,40.40
2017-09-08T14:16:26.000Z,40.60
2017-09-08T14:18:53.661Z,40.40
2017-09-08T14:21:21.627Z,39.60
2017-09-08T14:23:49.237Z,40.20
2017-09-08T14:28:51.828Z,40.00
2017-09-08T14:31:20.250Z,39.70
2017-09-08T14:33:48.624Z,39.50
2017-09-08T14:36:17.387Z,40.10
2017-09-08T14:38:44.985Z,40.00
2017-09-08T14:41:13.378Z,39.70
2017-09-08T14:43:41.359Z,39.60
2017-09-08T14:46:08.980Z,40.10
2017-09-08T14:48:37.349Z,41.00
2017-09-08T14:51:06.241Z,40.80
2017-09-08T14:53:33.849Z,40.50
2017-09-08T14:56:01.453Z,40.40
2017-09-08T14:58:29.121Z,40.70
2017-09-08T15:00:57.588Z,40.60
2017-09-08T15:03:25.577Z,40.70
2017-09-08T15:05:53.237Z,40.00
2017-09-08T15:08:21.682Z,41.30
2017-09-08T15:10:49.294Z,41.30
2017-09-08T15:13:17.690Z,40.80
2017-09-08T15:15:45.718Z,40.80
2017-09-08T15:18:13.614Z,41.00
2017-09-08T15:20:41.224Z,41.00
2017-09-08T15:23:08.860Z,41.80
2017-09-08T15:25:36.539Z,42.00
2017-09-08T15:28:04.529Z,41.20
2017-09-08T15:30:32.882Z,42.40
2017-09-08T15:33:00.483Z,43.10
2017-09-08T15:35:28.150Z,42.60
2017-09-08T15:37:56.511Z,41.50
2017-09-08T15:40:25.305Z,41.80
2017-09-08T15:42:52.983Z,41.80
2017-09-08T15:45:21.358Z,42.70
2017-09-08T15:47:49.755Z,43.30
2017-09-08T15:50:17.357Z,42.60
2017-09-08T15:52:45.345Z,42.50
2017-09-08T15:55:12.978Z,43.10
2017-09-08T15:57:40.741Z,43.20
2017-09-08T16:00:08.382Z,43.40
2017-09-08T16:02:36.190Z,43.00
2017-09-08T16:05:04.351Z,44.20
2017-09-08T16:07:31.957Z,43.70
2017-09-08T16:10:00.423Z,43.50
2017-09-08T16:12:28.844Z,43.70
2017-09-08T16:14:56.472Z,43.60
2017-09-08T16:17:25.342Z,43.60
2017-09-08T16:19:52.949Z,44.00
2017-09-08T16:22:20.601Z,44.40
2017-09-08T16:24:48.982Z,44.60
2017-09-08T16:27:16.575Z,44.50
2017-09-08T16:29:44.850Z,44.90
2017-09-08T16:32:13.252Z,45.30
2017-09-08T16:34:40.944Z,45.20
2017-09-08T16:37:09.330Z,45.90
2017-09-08T16:42:12.831Z,44.80
2017-09-08T16:44:41.200Z,45.00
2017-09-08T16:47:08.810Z,45.00
2017-09-08T16:49:36.932Z,45.30
2017-09-08T16:52:04.649Z,45.60
2017-09-08T16:54:32.292Z,45.90
2017-09-08T16:57:00.680Z,46.20
2017-09-08T16:59:28.305Z,46.20
2017-09-08T17:01:56.380Z,46.10
2017-09-08T17:04:24.763Z,46.80
2017-09-08T17:06:53.137Z,46.50
2017-09-08T17:09:21.549Z,46.50
2017-09-08T17:11:49.146Z,46.50
2017-09-08T17:14:17.203Z,46.70
2017-09-08T17:16:44.903Z,46.80
2017-09-08T17:19:13.294Z,47.00
2017-09-08T17:21:41.470Z,47.00
2017-09-08T17:24:09.872Z,47.50
2017-09-08T17:26:37.531Z,47.50
2017-09-08T17:29:06.924Z,47.60
2017-09-08T17:31:34.547Z,47.60
2017-09-08T17:34:02.628Z,47.80
2017-09-08T17:36:30.321Z,47.40
2017-09-08T17:38:58.702Z,47.30
2017-09-08T17:41:26.757Z,47.20
2017-09-08T17:43:55.144Z,47.30
2017-09-08T17:46:23.519Z,47.00
2017-09-08T17:48:51.942Z,47.00
2017-09-08T17:51:19.566Z,47.00
2017-09-08T17:53:48.392Z,47.00
2017-09-08T17:56:16.002Z,46.90
2017-09-08T17:58:43.625Z,47.00
2017-09-08T18:01:11.763Z,47.20
2017-09-08T18:03:39.458Z,47.30
2017-09-08T18:08:41.725Z,48.40
2017-09-08T18:11:09.328Z,48.40
2017-09-08T18:13:37.402Z,48.60
2017-09-08T18:16:05.045Z,48.80
2017-09-08T18:18:32.657Z,49.00
2017-09-08T18:21:00.699Z,49.10
2017-09-08T18:23:28.325Z,49.30
2017-09-08T18:25:55.955Z,49.30
2017-09-08T18:28:24.715Z,50.20
2017-09-08T18:30:53.091Z,50.80
2017-09-08T18:33:20.706Z,50.80
2017-09-08T18:35:48.799Z,51.30
2017-09-08T18:38:16.454Z,51.30
2017-09-08T18:40:44.440Z,51.20
2017-09-08T18:43:12.079Z,51.40
2017-09-08T18:45:40.471Z,51.50
2017-09-08T18:48:08.469Z,51.60
2017-09-08T18:50:36.128Z,51.70
2017-09-08T18:53:04.794Z,51.80
2017-09-08T18:55:32.451Z,51.90
2017-09-08T18:58:00.068Z,52.00
2017-09-08T19:00:28.301Z,52.40
2017-09-08T19:02:56.178Z,52.40
2017-09-08T19:05:23.820Z,52.40
2017-09-08T19:07:51.518Z,52.30
2017-09-08T19:10:19.957Z,52.60
2017-09-08T19:12:47.921Z,52.60
2017-09-08T19:15:15.557Z,52.80
2017-09-08T19:17:43.167Z,52.80
2017-09-08T19:20:11.243Z,52.60
2017-09-08T19:22:38.882Z,52.60
2017-09-08T19:25:06.536Z,52.80
2017-09-08T19:27:35.825Z,53.20
2017-09-08T19:30:03.422Z,53.10
2017-09-08T19:32:31.565Z,53.30
2017-09-08T19:34:59.191Z,53.60
2017-09-08T19:37:26.839Z,53.70
2017-09-08T19:39:55.227Z,53.90
2017-09-08T19:42:23.692Z,54.00
2017-09-08T19:44:52.465Z,54.10
2017-09-08T19:47:20.135Z,54.10
2017-09-08T19:49:48.546Z,54.60
2017-09-08T19:52:16.225Z,54.60
2017-09-08T19:54:43.886Z,55.00
2017-09-08T19:57:11.558Z,55.20
2017-09-08T19:59:39.227Z,55.20
2017-09-08T20:02:07.364Z,55.20
2017-09-08T20:04:34.998Z,55.20
2017-09-08T20:07:03.961Z,55.10
2017-09-08T20:09:32.064Z,55.00
2017-09-08T20:11:59.707Z,55.10
2017-09-08T20:14:27.320Z,55.10
2017-09-08T20:16:55.185Z,55.30
2017-09-08T20:19:22.874Z,55.20
2017-09-08T20:21:50.907Z,55.20
2017-09-08T20:24:18.574Z,55.00
2017-09-08T20:26:46.229Z,54.80
2017-09-08T20:29:14.233Z,54.50
2017-09-08T20:31:42.053Z,54.40
2017-09-08T20:34:11.376Z,54.00
2017-09-08T20:36:39.367Z,54.00
2017-09-08T20:39:07.342Z,54.00
2017-09-08T20:41:35.063Z,53.90
2017-09-08T20:44:03.825Z,54.80
2017-09-08T20:46:31.437Z,54.20
2017-09-08T20:48:59.045Z,54.30
2017-09-08T20:51:27.122Z,54.30
2017-09-08T20:53:55.704Z,55.40
2017-09-08T20:56:23.298Z,54.70
2017-09-08T20:58:51.324Z,54.80
2017-09-08T21:01:18.956Z,54.80
2017-09-08T21:03:46.563Z,54.70
2017-09-08T21:06:14.714Z,54.80
2017-09-08T21:08:42.303Z,54.60
2017-09-08T21:11:10.680Z,54.60
2017-09-08T21:13:39.415Z,54.60
2017-09-08T21:16:07.006Z,54.60
2017-09-08T21:18:34.627Z,54.60
2017-09-08T21:21:02.638Z,54.50
2017-09-08T21:23:30.264Z,54.60
2017-09-08T21:25:57.989Z,54.70
2017-09-08T21:28:26.769Z,54.80
2017-09-08T21:30:55.146Z,54.90
2017-09-08T21:33:22.971Z,54.80
2017-09-08T21:35:50.601Z,55.20
2017-09-08T21:38:18.202Z,55.50
2017-09-08T21:40:46.191Z,56.00
2017-09-08T21:43:13.915Z,56.30
2017-09-08T21:45:41.508Z,56.50
2017-09-08T21:48:09.480Z,56.50
2017-09-08T21:50:37.082Z,56.40
2017-09-08T21:53:04.687Z,56.40
2017-09-08T21:55:32.300Z,56.50
2017-09-08T21:57:59.919Z,56.60
2017-09-08T22:00:27.914Z,56.50
2017-09-08T22:02:56.316Z,55.80
2017-09-08T22:05:23.919Z,55.70
2017-09-08T22:07:51.539Z,55.70
2017-09-08T22:10:19.159Z,56.00
2017-09-08T22:12:47.548Z,56.90
2017-09-08T22:15:15.166Z,56.90
2017-09-08T22:17:42.776Z,57.40
2017-09-08T22:20:11.583Z,58.00
2017-09-08T22:22:39.188Z,58.00
2017-09-08T22:25:06.791Z,57.90
2017-09-08T22:27:35.541Z,58.00
2017-09-08T22:30:03.137Z,57.80
